createdAt,value
2022-09-12T00:01:22.911Z,8.32
2022-09-12T00:03:54.641Z,13.02
2022-09-12T00:06:24.968Z,9.55
2022-09-12T00:08:57.099Z,10.93
2022-09-12T00:11:26.135Z,9.63
2022-09-12T00:13:57.374Z,11.35
2022-09-12T00:16:27.454Z,12.02
2022-09-12T00:18:57.078Z,11.60
2022-09-12T00:21:25.238Z,10.82
2022-09-12T00:23:53.952Z,12.63
2022-09-12T00:26:23.064Z,11.82
2022-09-12T00:28:52.027Z,13.02
2022-09-12T00:31:27.245Z,14.02
2022-09-12T00:33:58.556Z,14.80
2022-09-12T00:36:27.849Z,12.30
2022-09-12T00:38:56.279Z,13.90
2022-09-12T00:41:27.365Z,13.80
2022-09-12T00:43:57.189Z,13.38
2022-09-12T00:46:34.205Z,15.25
2022-09-12T00:49:10.309Z,13.43
2022-09-12T00:51:39.708Z,12.00
2022-09-12T00:54:11.616Z,15.27
2022-09-12T00:56:44.557Z,13.82
2022-09-12T00:59:15.600Z,11.93
2022-09-12T01:01:45.793Z,14.68
2022-09-12T01:04:15.366Z,12.70
2022-09-12T01:06:45.650Z,12.27
2022-09-12T01:09:16.762Z,10.85
2022-09-12T01:11:47.143Z,11.90
2022-09-12T01:14:15.613Z,12.93
2022-09-12T01:16:45.128Z,12.45
2022-09-12T01:19:36.862Z,17.63
2022-09-12T01:22:20.220Z,13.60
2022-09-12T01:24:59.138Z,11.65
2022-09-12T01:27:46.068Z,13.18
2022-09-12T01:30:35.006Z,12.82
2022-09-12T01:33:17.571Z,12.32
2022-09-12T01:36:07.326Z,15.30
2022-09-12T01:38:39.915Z,13.23
2022-09-12T01:41:15.371Z,11.88
2022-09-12T01:43:52.064Z,12.38
2022-09-12T01:46:28.051Z,10.45
2022-09-12T01:49:01.430Z,9.07
2022-09-12T01:51:38.342Z,10.18
2022-09-12T01:54:11.042Z,11.65
2022-09-12T01:56:49.796Z,10.70
2022-09-12T01:59:22.574Z,10.40
2022-09-12T02:01:57.073Z,10.38
2022-09-12T02:04:33.960Z,10.98
2022-09-12T02:07:08.095Z,10.63
2022-09-12T02:09:39.502Z,12.02
2022-09-12T02:12:13.148Z,12.93
2022-09-12T02:14:46.565Z,18.17
2022-09-12T02:17:20.273Z,17.77
2022-09-12T02:19:53.328Z,16.55
2022-09-12T02:22:25.217Z,16.40
2022-09-12T02:24:58.269Z,16.23
2022-09-12T02:27:30.205Z,15.25
2022-09-12T02:29:58.151Z,17.80
2022-09-12T02:32:32.686Z,16.52
2022-09-12T02:35:07.004Z,14.43
2022-09-12T02:37:47.156Z,15.13
2022-09-12T02:40:15.886Z,16.42
2022-09-12T02:42:43.988Z,17.80
2022-09-12T02:45:12.454Z,14.07
2022-09-12T02:47:46.667Z,13.40
2022-09-12T02:50:15.346Z,14.82
2022-09-12T02:52:44.833Z,15.02
2022-09-12T02:55:13.055Z,14.70
2022-09-12T02:57:41.311Z,16.02
2022-09-12T03:00:10.752Z,15.40
2022-09-12T03:02:56.796Z,15.82
2022-09-12T03:05:30.421Z,16.85
2022-09-12T03:08:19.011Z,16.73
2022-09-12T03:11:07.118Z,14.48
2022-09-12T03:13:41.855Z,12.00
2022-09-12T03:16:18.158Z,13.40
2022-09-12T03:18:56.914Z,11.68
2022-09-12T03:21:30.062Z,11.77
2022-09-12T03:24:14.456Z,12.30
2022-09-12T03:26:49.550Z,11.40
2022-09-12T03:29:19.292Z,10.13
2022-09-12T03:31:54.223Z,12.25
2022-09-12T03:34:25.007Z,10.98
2022-09-12T03:36:55.359Z,12.20
2022-09-12T03:39:26.534Z,14.98
2022-09-12T03:41:54.925Z,11.23
2022-09-12T03:44:23.315Z,19.05
2022-09-12T03:46:51.427Z,10.50
2022-09-12T03:49:19.401Z,11.05
2022-09-12T03:51:48.760Z,10.30
2022-09-12T03:54:16.736Z,9.07
2022-09-12T03:56:44.622Z,12.20
2022-09-12T03:59:12.614Z,9.45
2022-09-12T04:01:41.730Z,11.68
2022-09-12T04:04:10.200Z,10.25
2022-09-12T04:06:38.295Z,10.15
2022-09-12T04:09:07.757Z,11.70
2022-09-12T04:11:36.690Z,8.85
2022-09-12T04:14:04.697Z,10.75
2022-09-12T04:16:33.385Z,10.88
2022-09-12T04:19:01.428Z,12.55
2022-09-12T04:21:33.776Z,9.30
2022-09-12T04:24:04.140Z,9.65
2022-09-12T04:26:36.400Z,10.55
2022-09-12T04:29:04.459Z,12.80
2022-09-12T04:31:34.376Z,10.90
2022-09-12T04:34:05.469Z,10.95
2022-09-12T04:36:36.466Z,10.07
2022-09-12T04:39:05.883Z,12.18
2022-09-12T04:41:37.170Z,11.93
2022-09-12T04:44:07.738Z,12.00
2022-09-12T04:46:40.717Z,12.43
2022-09-12T04:49:09.001Z,11.93
2022-09-12T04:51:38.510Z,11.48
2022-09-12T04:54:08.258Z,12.43
2022-09-12T04:56:40.675Z,14.68
2022-09-12T04:59:11.117Z,14.63
2022-09-12T05:01:39.293Z,14.98
2022-09-12T05:04:07.292Z,17.77
2022-09-12T05:06:37.344Z,15.50
2022-09-12T05:09:07.066Z,20.75
2022-09-12T05:12:02.513Z,19.65
2022-09-12T05:14:27.248Z,16.85
2022-09-12T05:16:59.851Z,16.20
2022-09-12T05:19:28.248Z,15.95
2022-09-12T05:22:09.771Z,18.42
2022-09-12T05:24:39.541Z,15.57
2022-09-12T05:27:07.620Z,15.88
2022-09-12T05:29:37.017Z,12.82
2022-09-12T05:32:05.273Z,11.70
2022-09-12T05:34:33.256Z,13.43
2022-09-12T05:37:01.233Z,13.43
2022-09-12T05:39:32.228Z,19.25
2022-09-12T05:42:00.196Z,16.20
2022-09-12T05:44:32.241Z,17.05
2022-09-12T05:47:01.687Z,16.15
2022-09-12T05:49:30.293Z,16.83
2022-09-12T05:51:58.299Z,20.33
2022-09-12T05:54:31.326Z,19.40
2022-09-12T05:57:00.079Z,20.40
2022-09-12T05:59:28.494Z,17.42
2022-09-12T06:01:56.555Z,21.45
2022-09-12T06:04:26.507Z,19.58
2022-09-12T06:06:56.525Z,21.13
2022-09-12T06:09:25.669Z,23.60
2022-09-12T06:11:53.582Z,20.13
2022-09-12T06:14:22.402Z,20.08
2022-09-12T06:16:50.628Z,18.40
2022-09-12T06:19:20.092Z,20.80
2022-09-12T06:21:51.639Z,16.15
2022-09-12T06:24:20.645Z,13.60
2022-09-12T06:26:48.799Z,11.48
2022-09-12T06:29:19.493Z,9.30
2022-09-12T06:31:47.671Z,11.82
2022-09-12T06:34:19.585Z,8.98
2022-09-12T06:36:50.284Z,9.52
2022-09-12T06:39:22.195Z,10.05
2022-09-12T06:41:51.379Z,9.63
2022-09-12T06:44:23.895Z,9.32
2022-09-12T06:46:53.671Z,8.93
2022-09-12T06:49:26.066Z,8.82
2022-09-12T06:51:55.577Z,8.82
2022-09-12T06:54:26.570Z,9.18
2022-09-12T06:57:48.374Z,6.93
2022-09-12T07:00:38.888Z,9.85
2022-09-12T07:03:15.756Z,5.20
2022-09-12T07:06:09.677Z,4.80
2022-09-12T07:08:41.653Z,4.75
2022-09-12T07:11:11.750Z,4.72
2022-09-12T07:13:40.450Z,4.63
2022-09-12T07:16:08.914Z,5.93
2022-09-12T07:18:38.610Z,5.63
2022-09-12T07:21:11.674Z,7.03
2022-09-12T07:23:52.333Z,4.15
2022-09-12T07:26:52.571Z,6.00
2022-09-12T07:29:39.292Z,7.05
2022-09-12T07:32:15.956Z,4.82
2022-09-12T07:34:54.195Z,5.75
2022-09-12T07:37:40.635Z,6.53
2022-09-12T07:40:33.187Z,6.30
2022-09-12T07:43:11.358Z,6.38
2022-09-12T07:46:00.550Z,7.00
2022-09-12T07:48:42.245Z,9.65
2022-09-12T07:51:31.262Z,7.93
2022-09-12T07:54:17.489Z,7.15
2022-09-12T07:59:52.801Z,7.00
2022-09-12T08:02:36.167Z,10.43
2022-09-12T08:05:25.889Z,6.97
2022-09-12T08:08:08.196Z,6.40
2022-09-12T08:10:39.831Z,7.43
2022-09-12T08:13:13.598Z,8.00
2022-09-12T08:15:41.690Z,6.45
2022-09-12T08:18:09.947Z,6.03
2022-09-12T08:20:39.938Z,8.55
2022-09-12T08:23:08.472Z,6.78
2022-09-12T08:25:36.540Z,7.15
2022-09-12T08:28:04.582Z,7.10
2022-09-12T08:30:33.936Z,6.63
2022-09-12T08:33:02.044Z,6.30
2022-09-12T08:35:30.214Z,7.72
2022-09-12T08:37:59.309Z,6.00
2022-09-12T08:40:29.212Z,6.22
2022-09-12T08:43:04.363Z,5.90
2022-09-12T08:45:41.670Z,5.97
2022-09-12T08:48:12.908Z,5.90
2022-09-12T08:51:12.674Z,5.68
2022-09-12T08:54:09.433Z,8.68
2022-09-12T08:57:01.541Z,5.35
2022-09-12T09:00:02.232Z,5.68
2022-09-12T09:03:02.772Z,7.75
2022-09-12T09:05:48.242Z,5.55
2022-09-12T09:08:41.791Z,7.00
2022-09-12T09:11:55.450Z,5.40
2022-09-12T09:15:17.005Z,6.72
2022-09-12T09:18:30.462Z,6.97
2022-09-12T09:21:30.709Z,4.78
2022-09-12T09:24:14.881Z,5.35
2022-09-12T09:27:42.807Z,4.63
2022-09-12T09:30:18.132Z,4.97
2022-09-12T09:33:09.341Z,6.50
2022-09-12T09:35:45.256Z,6.70
2022-09-12T09:38:48.630Z,4.35
2022-09-12T09:42:20.723Z,4.00
2022-09-12T09:48:02.009Z,4.00
2022-09-12T09:51:06.702Z,6.97
2022-09-12T09:53:51.115Z,4.65
2022-09-12T09:56:51.597Z,4.20
2022-09-12T09:59:42.625Z,4.50
2022-09-12T10:03:03.554Z,7.53
2022-09-12T10:05:36.166Z,4.70
2022-09-12T10:08:07.314Z,4.22
2022-09-12T10:10:36.764Z,4.15
2022-09-12T10:13:12.156Z,4.32
2022-09-12T10:15:40.204Z,5.68
2022-09-12T10:18:08.225Z,4.82
2022-09-12T10:20:41.684Z,4.47
2022-09-12T10:23:30.286Z,4.03
2022-09-12T10:26:02.495Z,3.75
2022-09-12T10:28:38.124Z,4.00
2022-09-12T10:31:07.906Z,4.85
2022-09-12T10:33:42.330Z,4.13
2022-09-12T10:36:10.906Z,6.63
2022-09-12T10:38:39.097Z,5.38
2022-09-12T10:45:01.406Z,3.97
2022-09-12T10:47:36.493Z,3.72
2022-09-12T10:50:27.410Z,3.92
2022-09-12T10:56:29.737Z,5.00
2022-09-12T11:23:14.066Z,4.45
2022-09-12T11:26:21.033Z,3.78
2022-09-12T11:29:02.289Z,3.63
2022-09-12T11:31:54.779Z,2.72
2022-09-12T11:34:40.584Z,3.10
2022-09-12T11:37:27.928Z,3.58
2022-09-12T11:40:42.644Z,2.10
2022-09-12T11:43:52.804Z,2.10
2022-09-12T11:46:52.318Z,1.95
2022-09-12T11:52:59.796Z,1.90
2022-09-12T11:57:03.595Z,2.75
2022-09-12T12:00:10.850Z,2.65
2022-09-12T12:07:32.000Z,3.15
2022-09-12T12:18:50.627Z,2.63
2022-09-12T12:25:29.671Z,2.00
2022-09-12T12:32:28.349Z,3.63
2022-09-12T12:35:53.628Z,2.17
2022-09-12T13:33:11.130Z,1.88
2022-09-12T13:35:52.894Z,1.98
2022-09-12T13:38:30.675Z,2.95
2022-09-12T13:41:22.258Z,2.35
2022-09-12T13:43:50.778Z,2.65
2022-09-12T13:46:30.199Z,1.65
2022-09-12T13:48:59.767Z,1.23
2022-09-12T13:51:33.222Z,1.48
2022-09-12T13:54:05.391Z,2.88
2022-09-12T13:56:33.527Z,1.73
2022-09-12T13:59:03.178Z,2.15
2022-09-12T14:01:42.676Z,1.58
2022-09-12T14:04:35.488Z,1.30
2022-09-12T15:00:54.288Z,1.10
2022-09-12T15:03:34.864Z,1.80
2022-09-12T15:07:25.538Z,1.88
2022-09-12T15:22:36.632Z,2.00
2022-09-12T15:29:11.475Z,2.45
2022-09-12T15:42:29.167Z,0.85
2022-09-12T16:07:28.480Z,1.52
2022-09-12T16:10:15.720Z,1.15
2022-09-12T16:12:50.325Z,2.65
2022-09-12T16:15:25.862Z,1.75
2022-09-12T16:17:57.100Z,2.28
2022-09-12T16:20:25.301Z,1.20
2022-09-12T16:22:54.667Z,2.17
2022-09-12T16:25:22.669Z,4.55
2022-09-12T16:27:50.721Z,3.35
2022-09-12T16:30:18.907Z,1.48
2022-09-12T16:32:46.885Z,2.60
2022-09-12T16:35:14.847Z,2.72
2022-09-12T16:37:43.351Z,2.08
2022-09-12T16:40:15.329Z,3.30
2022-09-12T16:42:43.872Z,1.60
2022-09-12T16:45:13.031Z,1.38
2022-09-12T16:47:41.126Z,2.38
2022-09-12T16:50:09.807Z,2.03
2022-09-12T16:52:37.844Z,2.70
2022-09-12T16:55:06.855Z,2.78
2022-09-12T16:57:36.226Z,1.52
2022-09-12T17:00:05.150Z,3.65
2022-09-12T17:02:33.125Z,3.10
2022-09-12T17:05:01.234Z,2.88
2022-09-12T17:07:29.490Z,1.33
2022-09-12T17:09:57.745Z,1.15
2022-09-12T17:12:25.855Z,2.00
2022-09-12T17:14:55.257Z,1.30
2022-09-12T17:17:23.292Z,1.00
2022-09-12T17:19:51.272Z,1.00
2022-09-12T17:22:19.209Z,1.50
2022-09-12T17:24:50.026Z,1.58
2022-09-12T17:27:17.962Z,1.58
2022-09-12T17:29:45.941Z,1.55
2022-09-12T17:32:17.504Z,3.50
2022-09-12T17:34:46.127Z,2.08
2022-09-12T17:37:18.722Z,1.88
2022-09-12T17:40:11.450Z,1.83
2022-09-12T17:42:48.906Z,0.98
2022-09-12T17:45:39.483Z,1.23
2022-09-12T17:48:19.864Z,1.02
2022-09-12T17:50:48.096Z,1.50
2022-09-12T17:53:16.245Z,2.50
2022-09-12T17:55:44.659Z,2.17
2022-09-12T17:58:13.430Z,1.70
2022-09-12T18:00:59.318Z,1.10
2022-09-12T18:11:14.017Z,2.55
2022-09-12T18:13:44.857Z,3.30
2022-09-12T18:17:08.801Z,1.17
2022-09-12T18:35:49.670Z,1.83
2022-09-12T18:39:13.336Z,3.08
2022-09-12T20:12:17.946Z,3.92
2022-09-12T20:15:27.166Z,2.50
2022-09-12T20:19:45.628Z,2.53
2022-09-12T20:22:15.768Z,1.67
2022-09-12T20:25:15.938Z,1.83
2022-09-12T20:28:22.137Z,1.27
2022-09-12T20:31:45.004Z,1.75
2022-09-12T20:34:58.326Z,1.45
2022-09-12T20:37:26.559Z,3.72
2022-09-12T20:40:44.807Z,2.35
